sensor_id;sensor_type;location;lat;lon;timestamp;pressure;altitude;pressure_sealevel;temperature;humidity
12757;BME280;31601;48.042;12.240;2023-08-17T00:01:02;96298.16;;;21.12;73.81
12757;BME280;31601;48.042;12.240;2023-08-17T00:03:29;96296.53;;;21.11;73.85
12757;BME280;31601;48.042;12.240;2023-08-17T00:05:56;96294.91;;;21.10;73.63
12757;BME280;31601;48.042;12.240;2023-08-17T00:08:22;96293.31;;;21.09;73.84
12757;BME280;31601;48.042;12.240;2023-08-17T00:10:49;96295.75;;;21.10;73.64
12757;BME280;31601;48.042;12.240;2023-08-17T00:13:15;96294.41;;;21.13;73.75
12757;BME280;31601;48.042;12.240;2023-08-17T00:15:42;96302.41;;;21.13;73.63
12757;BME280;31601;48.042;12.240;2023-08-17T00:18:10;96290.66;;;21.09;73.46
12757;BME280;31601;48.042;12.240;2023-08-17T00:20:38;96288.44;;;21.01;73.29
12757;BME280;31601;48.042;12.240;2023-08-17T00:23:04;96289.47;;;21.00;72.87
12757;BME280;31601;48.042;12.240;2023-08-17T00:25:31;96286.56;;;21.01;72.82
12757;BME280;31601;48.042;12.240;2023-08-17T00:27:57;96284.88;;;20.95;72.76
12757;BME280;31601;48.042;12.240;2023-08-17T00:30:24;96285.63;;;20.90;73.10
12757;BME280;31601;48.042;12.240;2023-08-17T00:32:50;96293.09;;;20.88;73.25
12757;BME280;31601;48.042;12.240;2023-08-17T00:35:17;96287.75;;;20.88;73.21
12757;BME280;31601;48.042;12.240;2023-08-17T00:37:44;96278.69;;;20.89;72.87
12757;BME280;31601;48.042;12.240;2023-08-17T00:40:11;96284.41;;;20.76;73.18
12757;BME280;31601;48.042;12.240;2023-08-17T00:42:38;96284.25;;;20.66;73.32
12757;BME280;31601;48.042;12.240;2023-08-17T00:45:05;96292.81;;;20.68;73.17
12757;BME280;31601;48.042;12.240;2023-08-17T00:47:32;96286.94;;;20.66;73.23
12757;BME280;31601;48.042;12.240;2023-08-17T00:49:59;96290.72;;;20.70;73.29
12757;BME280;31601;48.042;12.240;2023-08-17T00:52:25;96290.53;;;20.77;73.21
12757;BME280;31601;48.042;12.240;2023-08-17T00:54:54;96294.19;;;20.70;73.55
12757;BME280;31601;48.042;12.240;2023-08-17T00:57:21;96288.59;;;20.72;73.83
12757;BME280;31601;48.042;12.240;2023-08-17T00:59:49;96291.50;;;20.70;73.79
12757;BME280;31601;48.042;12.240;2023-08-17T01:02:17;96288.59;;;20.72;73.62
12757;BME280;31601;48.042;12.240;2023-08-17T01:04:43;96290.47;;;20.71;73.83
12757;BME280;31601;48.042;12.240;2023-08-17T01:07:09;96288.06;;;20.70;74.49
12757;BME280;31601;48.042;12.240;2023-08-17T01:09:36;96288.59;;;20.72;74.39
12757;BME280;31601;48.042;12.240;2023-08-17T01:12:08;96287.13;;;20.81;74.49
12757;BME280;31601;48.042;12.240;2023-08-17T01:14:50;96288.75;;;20.82;74.29
12757;BME280;31601;48.042;12.240;2023-08-17T01:17:22;96291.91;;;20.79;74.67
12757;BME280;31601;48.042;12.240;2023-08-17T01:19:52;96284.44;;;20.81;74.57
12757;BME280;31601;48.042;12.240;2023-08-17T01:22:21;96289.84;;;20.86;74.69
12757;BME280;31601;48.042;12.240;2023-08-17T01:24:49;96285.19;;;20.77;74.63
12757;BME280;31601;48.042;12.240;2023-08-17T01:27:22;96284.09;;;20.55;74.31
12757;BME280;31601;48.042;12.240;2023-08-17T01:29:48;96291.47;;;20.48;74.51
12757;BME280;31601;48.042;12.240;2023-08-17T01:32:20;96286.03;;;20.43;75.09
12757;BME280;31601;48.042;12.240;2023-08-17T01:34:54;96291.06;;;20.39;75.03
12757;BME280;31601;48.042;12.240;2023-08-17T01:37:26;96298.38;;;20.49;74.47
12757;BME280;31601;48.042;12.240;2023-08-17T01:39:56;96301.91;;;20.33;74.28
12757;BME280;31601;48.042;12.240;2023-08-17T01:42:24;96298.41;;;20.32;74.22
12757;BME280;31601;48.042;12.240;2023-08-17T01:44:52;96293.66;;;20.34;74.60
12757;BME280;31601;48.042;12.240;2023-08-17T01:47:20;96299.78;;;20.35;74.17
12757;BME280;31601;48.042;12.240;2023-08-17T01:49:47;96294.53;;;20.23;74.83
12757;BME280;31601;48.042;12.240;2023-08-17T01:52:14;96305.06;;;20.30;74.37
12757;BME280;31601;48.042;12.240;2023-08-17T01:54:40;96306.66;;;20.31;73.99
12757;BME280;31601;48.042;12.240;2023-08-17T01:57:08;96296.47;;;20.28;74.29
12757;BME280;31601;48.042;12.240;2023-08-17T01:59:34;96300.13;;;20.21;74.26
12757;BME280;31601;48.042;12.240;2023-08-17T02:02:01;96290.53;;;20.20;73.97
12757;BME280;31601;48.042;12.240;2023-08-17T02:04:27;96286.31;;;20.25;73.71
12757;BME280;31601;48.042;12.240;2023-08-17T02:06:53;96284.22;;;20.27;73.80
12757;BME280;31601;48.042;12.240;2023-08-17T02:09:20;96283.16;;;20.28;73.42
12757;BME280;31601;48.042;12.240;2023-08-17T02:11:46;96283.16;;;20.28;73.46
12757;BME280;31601;48.042;12.240;2023-08-17T02:14:14;96278.19;;;20.14;73.60
12757;BME280;31601;48.042;12.240;2023-08-17T02:16:40;96277.22;;;20.20;73.84
12757;BME280;31601;48.042;12.240;2023-08-17T02:19:07;96283.81;;;20.18;73.73
12757;BME280;31601;48.042;12.240;2023-08-17T02:21:33;96271.66;;;20.22;73.76
12757;BME280;31601;48.042;12.240;2023-08-17T02:24:00;96280.97;;;20.25;73.77
12757;BME280;31601;48.042;12.240;2023-08-17T02:26:26;96271.91;;;19.87;73.81
12757;BME280;31601;48.042;12.240;2023-08-17T02:28:52;96277.19;;;19.70;74.18
12757;BME280;31601;48.042;12.240;2023-08-17T02:31:20;96271.25;;;19.79;73.99
12757;BME280;31601;48.042;12.240;2023-08-17T02:33:47;96269.25;;;19.87;73.43
12757;BME280;31601;48.042;12.240;2023-08-17T02:36:14;96272.22;;;19.90;73.87
12757;BME280;31601;48.042;12.240;2023-08-17T02:38:40;96263.19;;;19.91;73.89
12757;BME280;31601;48.042;12.240;2023-08-17T02:41:06;96261.25;;;19.87;73.49
12757;BME280;31601;48.042;12.240;2023-08-17T02:43:33;96263.00;;;19.81;73.66
12757;BME280;31601;48.042;12.240;2023-08-17T02:45:59;96262.72;;;19.65;74.55
12757;BME280;31601;48.042;12.240;2023-08-17T02:48:27;96259.56;;;19.80;74.03
12757;BME280;31601;48.042;12.240;2023-08-17T02:50:53;96257.44;;;19.82;74.03
12757;BME280;31601;48.042;12.240;2023-08-17T02:53:20;96260.03;;;19.77;73.75
12757;BME280;31601;48.042;12.240;2023-08-17T02:55:46;96257.44;;;19.82;73.67
12757;BME280;31601;48.042;12.240;2023-08-17T02:58:13;96252.69;;;19.84;73.64
12757;BME280;31601;48.042;12.240;2023-08-17T03:00:39;96251.88;;;19.84;73.86
12757;BME280;31601;48.042;12.240;2023-08-17T03:03:06;96254.38;;;19.91;73.60
12757;BME280;31601;48.042;12.240;2023-08-17T03:05:34;96250.09;;;19.73;74.33
12757;BME280;31601;48.042;12.240;2023-08-17T03:08:01;96249.44;;;19.65;74.38
12757;BME280;31601;48.042;12.240;2023-08-17T03:10:27;96249.56;;;19.42;74.76
12757;BME280;31601;48.042;12.240;2023-08-17T03:12:53;96255.00;;;19.35;74.22
12757;BME280;31601;48.042;12.240;2023-08-17T03:15:20;96244.00;;;19.43;73.70
12757;BME280;31601;48.042;12.240;2023-08-17T03:17:46;96241.00;;;19.40;73.78
12757;BME280;31601;48.042;12.240;2023-08-17T03:20:13;96244.38;;;19.35;74.21
12757;BME280;31601;48.042;12.240;2023-08-17T03:22:40;96250.09;;;19.27;74.42
12757;BME280;31601;48.042;12.240;2023-08-17T03:25:08;96244.84;;;19.32;74.56
12757;BME280;31601;48.042;12.240;2023-08-17T03:27:35;96252.72;;;19.39;74.32
12757;BME280;31601;48.042;12.240;2023-08-17T03:30:01;96252.47;;;19.40;74.62
12757;BME280;31601;48.042;12.240;2023-08-17T03:32:28;96261.56;;;19.44;74.19
12757;BME280;31601;48.042;12.240;2023-08-17T03:34:54;96270.63;;;19.43;74.22
12757;BME280;31601;48.042;12.240;2023-08-17T03:37:21;96271.84;;;19.53;74.24
12757;BME280;31601;48.042;12.240;2023-08-17T03:39:48;96272.44;;;19.43;74.84
12757;BME280;31601;48.042;12.240;2023-08-17T03:42:15;96269.66;;;19.49;75.13
12757;BME280;31601;48.042;12.240;2023-08-17T03:44:41;96273.19;;;19.55;74.61
12757;BME280;31601;48.042;12.240;2023-08-17T03:47:08;96263.84;;;19.53;75.17
12757;BME280;31601;48.042;12.240;2023-08-17T03:49:34;96256.13;;;19.51;75.13
12757;BME280;31601;48.042;12.240;2023-08-17T03:52:01;96266.03;;;19.56;75.37
12757;BME280;31601;48.042;12.240;2023-08-17T03:54:27;96275.06;;;19.55;75.09
12757;BME280;31601;48.042;12.240;2023-08-17T03:56:56;96276.81;;;19.49;75.40
12757;BME280;31601;48.042;12.240;2023-08-17T03:59:22;96278.28;;;19.57;74.68
12757;BME280;31601;48.042;12.240;2023-08-17T04:01:50;96276.81;;;19.49;74.76
12757;BME280;31601;48.042;12.240;2023-08-17T04:04:16;96274.53;;;19.41;75.02
12757;BME280;31601;48.042;12.240;2023-08-17T04:06:43;96269.53;;;19.44;74.73
12757;BME280;31601;48.042;12.240;2023-08-17T04:09:10;96273.13;;;19.50;74.67
12757;BME280;31601;48.042;12.240;2023-08-17T04:11:36;96271.97;;;19.46;74.43
12757;BME280;31601;48.042;12.240;2023-08-17T04:14:04;96273.56;;;19.30;75.24
12757;BME280;31601;48.042;12.240;2023-08-17T04:16:32;96281.28;;;19.31;75.26
12757;BME280;31601;48.042;12.240;2023-08-17T04:18:58;96280.34;;;19.38;74.99
12757;BME280;31601;48.042;12.240;2023-08-17T04:21:25;96275.81;;;19.38;74.54
12757;BME280;31601;48.042;12.240;2023-08-17T04:23:52;96271.56;;;19.37;74.52
12757;BME280;31601;48.042;12.240;2023-08-17T04:26:19;96278.69;;;19.48;74.37
12757;BME280;31601;48.042;12.240;2023-08-17T04:28:45;96275.53;;;19.52;74.75
12757;BME280;31601;48.042;12.240;2023-08-17T04:31:13;96277.00;;;19.59;74.69
12757;BME280;31601;48.042;12.240;2023-08-17T04:33:40;96285.06;;;19.64;74.39
12757;BME280;31601;48.042;12.240;2023-08-17T04:36:07;96288.63;;;19.70;74.54
12757;BME280;31601;48.042;12.240;2023-08-17T04:38:33;96291.38;;;19.75;74.71
12757;BME280;31601;48.042;12.240;2023-08-17T04:41:00;96276.75;;;19.90;74.47
12757;BME280;31601;48.042;12.240;2023-08-17T04:43:26;96282.22;;;20.00;74.47
12757;BME280;31601;48.042;12.240;2023-08-17T04:45:53;96287.06;;;20.03;74.52
12757;BME280;31601;48.042;12.240;2023-08-17T04:48:20;96298.22;;;19.54;75.16
12757;BME280;31601;48.042;12.240;2023-08-17T04:50:48;96294.91;;;19.64;74.53
12757;BME280;31601;48.042;12.240;2023-08-17T04:53:14;96294.44;;;19.67;74.76
12757;BME280;31601;48.042;12.240;2023-08-17T04:55:41;96295.19;;;19.79;74.59
12757;BME280;31601;48.042;12.240;2023-08-17T04:58:07;96285.53;;;19.90;74.66
12757;BME280;31601;48.042;12.240;2023-08-17T05:00:34;96289.81;;;20.08;74.01
12757;BME280;31601;48.042;12.240;2023-08-17T05:03:00;96305.44;;;20.04;74.39
12757;BME280;31601;48.042;12.240;2023-08-17T05:05:28;96302.88;;;19.93;74.36
12757;BME280;31601;48.042;12.240;2023-08-17T05:07:54;96307.72;;;19.96;74.92
12757;BME280;31601;48.042;12.240;2023-08-17T05:10:21;96302.41;;;20.13;74.34
12757;BME280;31601;48.042;12.240;2023-08-17T05:12:47;96300.47;;;20.08;73.70
12757;BME280;31601;48.042;12.240;2023-08-17T05:15:14;96309.00;;;20.10;73.17
12757;BME280;31601;48.042;12.240;2023-08-17T05:17:40;96303.03;;;20.03;72.82
12757;BME280;31601;48.042;12.240;2023-08-17T05:20:08;96304.97;;;19.91;73.26
12757;BME280;31601;48.042;12.240;2023-08-17T05:22:36;96312.81;;;19.68;74.04
12757;BME280;31601;48.042;12.240;2023-08-17T05:25:03;96313.84;;;19.79;73.50
12757;BME280;31601;48.042;12.240;2023-08-17T05:27:29;96329.41;;;19.88;73.89
12757;BME280;31601;48.042;12.240;2023-08-17T05:29:56;96331.47;;;20.14;73.34
12757;BME280;31601;48.042;12.240;2023-08-17T05:32:22;96329.75;;;20.42;72.71
12757;BME280;31601;48.042;12.240;2023-08-17T05:34:49;96331.75;;;20.35;73.43
12757;BME280;31601;48.042;12.240;2023-08-17T05:37:15;96322.56;;;20.26;74.34
12757;BME280;31601;48.042;12.240;2023-08-17T05:39:43;96333.88;;;20.33;74.90
12757;BME280;31601;48.042;12.240;2023-08-17T05:42:09;96337.56;;;20.49;74.52
12757;BME280;31601;48.042;12.240;2023-08-17T05:44:36;96339.94;;;20.84;73.48
12757;BME280;31601;48.042;12.240;2023-08-17T05:47:02;96340.25;;;20.88;73.80
12757;BME280;31601;48.042;12.240;2023-08-17T05:49:29;96343.31;;;20.97;73.79
12757;BME280;31601;48.042;12.240;2023-08-17T05:51:56;96351.75;;;21.10;73.33
12757;BME280;31601;48.042;12.240;2023-08-17T05:54:22;96350.81;;;21.22;73.24
12757;BME280;31601;48.042;12.240;2023-08-17T05:56:50;96347.91;;;21.23;73.44
12757;BME280;31601;48.042;12.240;2023-08-17T05:59:16;96343.34;;;21.24;74.05
12757;BME280;31601;48.042;12.240;2023-08-17T06:01:43;96341.94;;;21.38;74.16
12757;BME280;31601;48.042;12.240;2023-08-17T06:04:09;96344.22;;;21.52;73.78
12757;BME280;31601;48.042;12.240;2023-08-17T06:06:36;96336.91;;;21.42;74.39
12757;BME280;31601;48.042;12.240;2023-08-17T06:09:02;96345.47;;;21.44;74.90
12757;BME280;31601;48.042;12.240;2023-08-17T06:11:29;96351.00;;;21.59;75.26
12757;BME280;31601;48.042;12.240;2023-08-17T06:13:56;96338.13;;;21.78;75.16
12757;BME280;31601;48.042;12.240;2023-08-17T06:16:23;96345.06;;;21.79;75.15
12757;BME280;31601;48.042;12.240;2023-08-17T06:18:49;96342.34;;;22.02;74.54
12757;BME280;31601;48.042;12.240;2023-08-17T06:21:16;96337.13;;;22.17;74.32
12757;BME280;31601;48.042;12.240;2023-08-17T06:23:42;96341.47;;;22.28;73.63
12757;BME280;31601;48.042;12.240;2023-08-17T06:26:09;96346.28;;;22.26;73.50
12757;BME280;31601;48.042;12.240;2023-08-17T06:28:36;96333.66;;;22.54;72.49
12757;BME280;31601;48.042;12.240;2023-08-17T06:31:03;96330.63;;;22.40;71.37
12757;BME280;31601;48.042;12.240;2023-08-17T06:33:30;96339.28;;;22.58;69.84
12757;BME280;31601;48.042;12.240;2023-08-17T06:35:56;96338.00;;;22.65;69.33
12757;BME280;31601;48.042;12.240;2023-08-17T06:38:23;96333.75;;;22.69;68.98
12757;BME280;31601;48.042;12.240;2023-08-17T06:40:51;96326.91;;;22.89;68.47
12757;BME280;31601;48.042;12.240;2023-08-17T06:43:17;96325.84;;;22.90;68.87
12757;BME280;31601;48.042;12.240;2023-08-17T06:45:44;96331.88;;;23.18;68.15
12757;BME280;31601;48.042;12.240;2023-08-17T06:48:12;96333.19;;;23.15;68.82
12757;BME280;31601;48.042;12.240;2023-08-17T06:50:38;96332.44;;;23.25;68.76
12757;BME280;31601;48.042;12.240;2023-08-17T06:53:05;96322.53;;;23.26;68.44
12757;BME280;31601;48.042;12.240;2023-08-17T06:55:31;96316.75;;;23.65;67.11
12757;BME280;31601;48.042;12.240;2023-08-17T06:57:58;96325.38;;;23.87;66.43
12757;BME280;31601;48.042;12.240;2023-08-17T07:00:24;96332.63;;;23.97;65.53
12757;BME280;31601;48.042;12.240;2023-08-17T07:02:51;96337.97;;;23.97;65.92
12757;BME280;31601;48.042;12.240;2023-08-17T07:05:19;96336.38;;;24.17;65.05
12757;BME280;31601;48.042;12.240;2023-08-17T07:07:45;96331.28;;;24.25;65.21
12757;BME280;31601;48.042;12.240;2023-08-17T07:10:12;96340.16;;;24.05;65.30
12757;BME280;31601;48.042;12.240;2023-08-17T07:12:38;96342.28;;;23.93;65.18
12757;BME280;31601;48.042;12.240;2023-08-17T07:15:07;96353.53;;;23.90;65.10
12757;BME280;31601;48.042;12.240;2023-08-17T07:17:33;96350.84;;;24.16;65.88
12757;BME280;31601;48.042;12.240;2023-08-17T07:20:01;96348.97;;;24.26;64.98
12757;BME280;31601;48.042;12.240;2023-08-17T07:22:30;96342.25;;;24.49;63.47
12757;BME280;31601;48.042;12.240;2023-08-17T07:24:56;96344.88;;;24.91;63.03
